sensor_id;sensor_type;location;lat;lon;timestamp;P1;durP1;ratioP1;P2;durP2;ratioP2
8036;SDS011;4061;51.360;7.340;2024-02-26T00:00:24;1.53;;;0.77;;
8036;SDS011;4061;51.360;7.340;2024-02-26T00:02:51;0.77;;;0.67;;
8036;SDS011;4061;51.360;7.340;2024-02-26T00:05:18;1.77;;;0.93;;
8036;SDS011;4061;51.360;7.340;2024-02-26T00:07:45;0.57;;;0.57;;
8036;SDS011;4061;51.360;7.340;2024-02-26T00:10:15;1.33;;;0.90;;
8036;SDS011;4061;51.360;7.340;2024-02-26T00:12:42;1.60;;;1.00;;
8036;SDS011;4061;51.360;7.340;2024-02-26T00:15:09;1.57;;;0.90;;
8036;SDS011;4061;51.360;7.340;2024-02-26T00:17:36;0.97;;;0.80;;
8036;SDS011;4061;51.360;7.340;2024-02-26T00:20:04;2.47;;;0.80;;
8036;SDS011;4061;51.360;7.340;2024-02-26T00:22:33;0.77;;;0.77;;
8036;SDS011;4061;51.360;7.340;2024-02-26T00:25:00;1.33;;;0.80;;
8036;SDS011;4061;51.360;7.340;2024-02-26T00:27:29;0.97;;;0.90;;
8036;SDS011;4061;51.360;7.340;2024-02-26T00:29:56;0.70;;;0.70;;
8036;SDS011;4061;51.360;7.340;2024-02-26T00:32:23;1.07;;;0.70;;
8036;SDS011;4061;51.360;7.340;2024-02-26T00:34:50;0.80;;;0.80;;
8036;SDS011;4061;51.360;7.340;2024-02-26T00:37:17;0.57;;;0.57;;
8036;SDS011;4061;51.360;7.340;2024-02-26T00:39:44;0.83;;;0.40;;
8036;SDS011;4061;51.360;7.340;2024-02-26T00:42:11;4.03;;;0.90;;
8036;SDS011;4061;51.360;7.340;2024-02-26T00:44:40;4.60;;;1.27;;
8036;SDS011;4061;51.360;7.340;2024-02-26T00:47:07;1.33;;;0.87;;
8036;SDS011;4061;51.360;7.340;2024-02-26T00:49:34;2.67;;;0.90;;
8036;SDS011;4061;51.360;7.340;2024-02-26T00:52:01;0.70;;;0.70;;
8036;SDS011;4061;51.360;7.340;2024-02-26T00:54:28;1.03;;;0.60;;
8036;SDS011;4061;51.360;7.340;2024-02-26T00:56:55;1.07;;;0.50;;
8036;SDS011;4061;51.360;7.340;2024-02-26T00:59:22;1.03;;;0.77;;
8036;SDS011;4061;51.360;7.340;2024-02-26T01:01:50;1.07;;;0.73;;
8036;SDS011;4061;51.360;7.340;2024-02-26T01:04:17;1.83;;;1.00;;
8036;SDS011;4061;51.360;7.340;2024-02-26T01:06:44;0.53;;;0.53;;
8036;SDS011;4061;51.360;7.340;2024-02-26T01:09:11;0.77;;;0.77;;
8036;SDS011;4061;51.360;7.340;2024-02-26T01:11:38;0.50;;;0.50;;
8036;SDS011;4061;51.360;7.340;2024-02-26T01:14:05;0.93;;;0.70;;
8036;SDS011;4061;51.360;7.340;2024-02-26T01:16:32;4.33;;;0.60;;
8036;SDS011;4061;51.360;7.340;2024-02-26T01:19:01;2.80;;;0.77;;
8036;SDS011;4061;51.360;7.340;2024-02-26T01:21:28;0.73;;;0.73;;
8036;SDS011;4061;51.360;7.340;2024-02-26T01:23:55;2.07;;;1.07;;
8036;SDS011;4061;51.360;7.340;2024-02-26T01:26:22;2.20;;;0.67;;
8036;SDS011;4061;51.360;7.340;2024-02-26T01:28:49;0.80;;;0.80;;
8036;SDS011;4061;51.360;7.340;2024-02-26T01:31:16;1.73;;;0.57;;
8036;SDS011;4061;51.360;7.340;2024-02-26T01:33:43;0.77;;;0.50;;
8036;SDS011;4061;51.360;7.340;2024-02-26T01:36:12;0.60;;;0.57;;
8036;SDS011;4061;51.360;7.340;2024-02-26T01:38:39;1.43;;;0.80;;
8036;SDS011;4061;51.360;7.340;2024-02-26T01:41:06;0.60;;;0.60;;
8036;SDS011;4061;51.360;7.340;2024-02-26T01:43:33;1.80;;;0.93;;
8036;SDS011;4061;51.360;7.340;2024-02-26T01:46:00;2.30;;;0.70;;
8036;SDS011;4061;51.360;7.340;2024-02-26T01:48:27;0.97;;;0.83;;
8036;SDS011;4061;51.360;7.340;2024-02-26T01:50:54;2.73;;;0.60;;
8036;SDS011;4061;51.360;7.340;2024-02-26T01:53:23;2.53;;;0.67;;
8036;SDS011;4061;51.360;7.340;2024-02-26T01:55:50;0.53;;;0.53;;
8036;SDS011;4061;51.360;7.340;2024-02-26T01:58:17;1.60;;;0.50;;
8036;SDS011;4061;51.360;7.340;2024-02-26T02:00:44;0.40;;;0.40;;
8036;SDS011;4061;51.360;7.340;2024-02-26T02:03:11;0.80;;;0.70;;
8036;SDS011;4061;51.360;7.340;2024-02-26T02:05:39;1.00;;;0.77;;
8036;SDS011;4061;51.360;7.340;2024-02-26T02:08:07;0.67;;;0.60;;
8036;SDS011;4061;51.360;7.340;2024-02-26T02:10:35;0.47;;;0.40;;
8036;SDS011;4061;51.360;7.340;2024-02-26T02:13:03;0.43;;;0.43;;
8036;SDS011;4061;51.360;7.340;2024-02-26T02:15:30;3.37;;;0.60;;
8036;SDS011;4061;51.360;7.340;2024-02-26T02:17:57;0.57;;;0.57;;
8036;SDS011;4061;51.360;7.340;2024-02-26T02:20:26;0.80;;;0.80;;
8036;SDS011;4061;51.360;7.340;2024-02-26T02:22:58;0.60;;;0.60;;
8036;SDS011;4061;51.360;7.340;2024-02-26T02:25:25;1.40;;;0.70;;
8036;SDS011;4061;51.360;7.340;2024-02-26T02:27:53;0.47;;;0.47;;
8036;SDS011;4061;51.360;7.340;2024-02-26T02:30:20;0.97;;;0.60;;
8036;SDS011;4061;51.360;7.340;2024-02-26T02:32:48;0.93;;;0.40;;
8036;SDS011;4061;51.360;7.340;2024-02-26T02:35:15;0.47;;;0.47;;
8036;SDS011;4061;51.360;7.340;2024-02-26T02:37:44;3.50;;;0.77;;
8036;SDS011;4061;51.360;7.340;2024-02-26T02:40:11;0.50;;;0.50;;
8036;SDS011;4061;51.360;7.340;2024-02-26T02:42:38;1.83;;;0.60;;
8036;SDS011;4061;51.360;7.340;2024-02-26T02:45:05;0.70;;;0.70;;
8036;SDS011;4061;51.360;7.340;2024-02-26T02:47:35;2.23;;;0.60;;
8036;SDS011;4061;51.360;7.340;2024-02-26T02:50:02;0.73;;;0.73;;
8036;SDS011;4061;51.360;7.340;2024-02-26T02:52:30;2.13;;;0.40;;
8036;SDS011;4061;51.360;7.340;2024-02-26T02:54:58;0.80;;;0.80;;
8036;SDS011;4061;51.360;7.340;2024-02-26T02:57:25;0.70;;;0.60;;
8036;SDS011;4061;51.360;7.340;2024-02-26T02:59:52;0.40;;;0.40;;
8036;SDS011;4061;51.360;7.340;2024-02-26T03:02:19;0.60;;;0.60;;
8036;SDS011;4061;51.360;7.340;2024-02-26T03:04:46;1.50;;;0.60;;
8036;SDS011;4061;51.360;7.340;2024-02-26T03:07:13;0.50;;;0.50;;
8036;SDS011;4061;51.360;7.340;2024-02-26T03:09:40;0.70;;;0.70;;
8036;SDS011;4061;51.360;7.340;2024-02-26T03:12:09;0.63;;;0.63;;
8036;SDS011;4061;51.360;7.340;2024-02-26T03:14:36;1.57;;;0.60;;
8036;SDS011;4061;51.360;7.340;2024-02-26T03:17:03;0.60;;;0.60;;
8036;SDS011;4061;51.360;7.340;2024-02-26T03:19:30;3.17;;;0.90;;
8036;SDS011;4061;51.360;7.340;2024-02-26T03:21:57;0.60;;;0.60;;
8036;SDS011;4061;51.360;7.340;2024-02-26T03:24:24;1.57;;;0.30;;
8036;SDS011;4061;51.360;7.340;2024-02-26T03:26:52;0.67;;;0.67;;
8036;SDS011;4061;51.360;7.340;2024-02-26T03:29:20;0.83;;;0.70;;
8036;SDS011;4061;51.360;7.340;2024-02-26T03:31:47;0.57;;;0.57;;
8036;SDS011;4061;51.360;7.340;2024-02-26T03:34:14;0.83;;;0.60;;
8036;SDS011;4061;51.360;7.340;2024-02-26T03:36:42;0.97;;;0.80;;
8036;SDS011;4061;51.360;7.340;2024-02-26T03:39:09;0.50;;;0.50;;
8036;SDS011;4061;51.360;7.340;2024-02-26T03:41:37;0.87;;;0.87;;
8036;SDS011;4061;51.360;7.340;2024-02-26T03:44:04;0.83;;;0.83;;
8036;SDS011;4061;51.360;7.340;2024-02-26T03:46:32;1.37;;;0.60;;
8036;SDS011;4061;51.360;7.340;2024-02-26T03:48:59;0.80;;;0.80;;
8036;SDS011;4061;51.360;7.340;2024-02-26T03:51:26;1.30;;;1.10;;
8036;SDS011;4061;51.360;7.340;2024-02-26T03:53:56;0.57;;;0.57;;
8036;SDS011;4061;51.360;7.340;2024-02-26T03:56:23;1.80;;;0.90;;
8036;SDS011;4061;51.360;7.340;2024-02-26T03:58:50;0.77;;;0.77;;
8036;SDS011;4061;51.360;7.340;2024-02-26T04:01:17;1.37;;;0.67;;
8036;SDS011;4061;51.360;7.340;2024-02-26T04:03:46;3.50;;;1.10;;
8036;SDS011;4061;51.360;7.340;2024-02-26T04:06:13;0.57;;;0.57;;
8036;SDS011;4061;51.360;7.340;2024-02-26T04:08:40;1.40;;;0.57;;
8036;SDS011;4061;51.360;7.340;2024-02-26T04:11:08;1.33;;;0.63;;
8036;SDS011;4061;51.360;7.340;2024-02-26T04:13:35;1.83;;;0.90;;
8036;SDS011;4061;51.360;7.340;2024-02-26T04:16:03;1.33;;;0.70;;
8036;SDS011;4061;51.360;7.340;2024-02-26T04:18:30;3.47;;;0.70;;
8036;SDS011;4061;51.360;7.340;2024-02-26T04:20:59;1.30;;;1.20;;
8036;SDS011;4061;51.360;7.340;2024-02-26T04:23:26;0.60;;;0.60;;
8036;SDS011;4061;51.360;7.340;2024-02-26T04:25:54;1.23;;;0.60;;
8036;SDS011;4061;51.360;7.340;2024-02-26T04:28:21;0.73;;;0.73;;
8036;SDS011;4061;51.360;7.340;2024-02-26T04:30:50;0.60;;;0.60;;
8036;SDS011;4061;51.360;7.340;2024-02-26T04:33:17;0.97;;;0.80;;
8036;SDS011;4061;51.360;7.340;2024-02-26T04:35:44;0.70;;;0.70;;
8036;SDS011;4061;51.360;7.340;2024-02-26T04:38:13;1.13;;;1.03;;
8036;SDS011;4061;51.360;7.340;2024-02-26T04:40:40;1.70;;;0.80;;
8036;SDS011;4061;51.360;7.340;2024-02-26T04:43:07;2.30;;;1.13;;
8036;SDS011;4061;51.360;7.340;2024-02-26T04:45:34;0.97;;;0.90;;
8036;SDS011;4061;51.360;7.340;2024-02-26T04:48:01;1.23;;;1.10;;
8036;SDS011;4061;51.360;7.340;2024-02-26T04:50:28;0.97;;;0.97;;
8036;SDS011;4061;51.360;7.340;2024-02-26T04:52:55;3.63;;;1.37;;
8036;SDS011;4061;51.360;7.340;2024-02-26T04:55:24;1.20;;;1.20;;
8036;SDS011;4061;51.360;7.340;2024-02-26T04:57:51;1.57;;;1.07;;
8036;SDS011;4061;51.360;7.340;2024-02-26T05:00:18;1.43;;;0.90;;
8036;SDS011;4061;51.360;7.340;2024-02-26T05:02:45;1.43;;;1.30;;
8036;SDS011;4061;51.360;7.340;2024-02-26T05:05:12;9.67;;;0.90;;
8036;SDS011;4061;51.360;7.340;2024-02-26T05:07:39;1.00;;;1.00;;
8036;SDS011;4061;51.360;7.340;2024-02-26T05:10:07;1.40;;;1.27;;
8036;SDS011;4061;51.360;7.340;2024-02-26T05:12:36;1.90;;;1.03;;
8036;SDS011;4061;51.360;7.340;2024-02-26T05:15:04;3.30;;;0.97;;
8036;SDS011;4061;51.360;7.340;2024-02-26T05:17:31;1.07;;;0.97;;
8036;SDS011;4061;51.360;7.340;2024-02-26T05:19:58;0.80;;;0.80;;
8036;SDS011;4061;51.360;7.340;2024-02-26T05:22:25;1.23;;;1.23;;
8036;SDS011;4061;51.360;7.340;2024-02-26T05:24:52;1.30;;;1.20;;
8036;SDS011;4061;51.360;7.340;2024-02-26T05:27:20;1.40;;;0.80;;
8036;SDS011;4061;51.360;7.340;2024-02-26T05:29:48;1.30;;;0.90;;
8036;SDS011;4061;51.360;7.340;2024-02-26T05:32:17;1.10;;;1.00;;
8036;SDS011;4061;51.360;7.340;2024-02-26T05:34:44;2.70;;;1.30;;
8036;SDS011;4061;51.360;7.340;2024-02-26T05:37:11;7.70;;;1.40;;
8036;SDS011;4061;51.360;7.340;2024-02-26T05:39:38;1.57;;;1.03;;
8036;SDS011;4061;51.360;7.340;2024-02-26T05:42:05;1.13;;;1.07;;
8036;SDS011;4061;51.360;7.340;2024-02-26T05:44:34;1.10;;;1.10;;
8036;SDS011;4061;51.360;7.340;2024-02-26T05:47:02;1.20;;;1.20;;
8036;SDS011;4061;51.360;7.340;2024-02-26T05:49:29;9.00;;;1.33;;
8036;SDS011;4061;51.360;7.340;2024-02-26T05:51:57;1.20;;;1.20;;
8036;SDS011;4061;51.360;7.340;2024-02-26T05:54:24;1.20;;;1.20;;
8036;SDS011;4061;51.360;7.340;2024-02-26T05:56:51;2.17;;;1.33;;
8036;SDS011;4061;51.360;7.340;2024-02-26T05:59:18;2.77;;;1.20;;
8036;SDS011;4061;51.360;7.340;2024-02-26T06:01:45;1.30;;;1.20;;
8036;SDS011;4061;51.360;7.340;2024-02-26T06:04:14;0.90;;;0.80;;
8036;SDS011;4061;51.360;7.340;2024-02-26T06:06:42;2.23;;;1.07;;
8036;SDS011;4061;51.360;7.340;2024-02-26T06:09:09;1.40;;;1.30;;
8036;SDS011;4061;51.360;7.340;2024-02-26T06:11:36;3.63;;;1.67;;
8036;SDS011;4061;51.360;7.340;2024-02-26T06:14:03;1.67;;;1.20;;
8036;SDS011;4061;51.360;7.340;2024-02-26T06:16:30;2.60;;;1.50;;
8036;SDS011;4061;51.360;7.340;2024-02-26T06:18:58;1.67;;;1.57;;
8036;SDS011;4061;51.360;7.340;2024-02-26T06:21:27;1.20;;;1.10;;
8036;SDS011;4061;51.360;7.340;2024-02-26T06:23:54;2.50;;;1.50;;
8036;SDS011;4061;51.360;7.340;2024-02-26T06:26:21;2.43;;;1.37;;
8036;SDS011;4061;51.360;7.340;2024-02-26T06:28:48;1.10;;;0.97;;
8036;SDS011;4061;51.360;7.340;2024-02-26T06:31:17;2.30;;;0.77;;
8036;SDS011;4061;51.360;7.340;2024-02-26T06:33:44;1.73;;;1.10;;
8036;SDS011;4061;51.360;7.340;2024-02-26T06:36:11;1.17;;;1.10;;
8036;SDS011;4061;51.360;7.340;2024-02-26T06:38:39;4.03;;;1.40;;
8036;SDS011;4061;51.360;7.340;2024-02-26T06:41:06;3.77;;;1.80;;
8036;SDS011;4061;51.360;7.340;2024-02-26T06:43:33;1.37;;;1.10;;
8036;SDS011;4061;51.360;7.340;2024-02-26T06:46:00;3.30;;;1.73;;
8036;SDS011;4061;51.360;7.340;2024-02-26T06:48:28;5.20;;;1.90;;
8036;SDS011;4061;51.360;7.340;2024-02-26T06:50:55;1.23;;;1.20;;
8036;SDS011;4061;51.360;7.340;2024-02-26T06:53:22;1.20;;;1.20;;
8036;SDS011;4061;51.360;7.340;2024-02-26T06:55:51;1.10;;;1.00;;
8036;SDS011;4061;51.360;7.340;2024-02-26T06:58:18;7.90;;;1.10;;
8036;SDS011;4061;51.360;7.340;2024-02-26T07:00:45;1.10;;;1.10;;
8036;SDS011;4061;51.360;7.340;2024-02-26T07:03:12;1.00;;;1.00;;
8036;SDS011;4061;51.360;7.340;2024-02-26T07:05:40;1.73;;;1.60;;
8036;SDS011;4061;51.360;7.340;2024-02-26T07:08:07;1.20;;;1.20;;
8036;SDS011;4061;51.360;7.340;2024-02-26T07:10:34;1.83;;;0.83;;
8036;SDS011;4061;51.360;7.340;2024-02-26T07:13:02;0.70;;;0.70;;
8036;SDS011;4061;51.360;7.340;2024-02-26T07:15:29;0.90;;;0.90;;
8036;SDS011;4061;51.360;7.340;2024-02-26T07:17:57;1.43;;;1.43;;
8036;SDS011;4061;51.360;7.340;2024-02-26T07:20:28;1.00;;;1.00;;
8036;SDS011;4061;51.360;7.340;2024-02-26T07:22:56;2.17;;;1.43;;
8036;SDS011;4061;51.360;7.340;2024-02-26T07:25:24;1.40;;;1.13;;
8036;SDS011;4061;51.360;7.340;2024-02-26T07:27:51;1.10;;;1.00;;
8036;SDS011;4061;51.360;7.340;2024-02-26T07:30:19;1.23;;;1.20;;
8036;SDS011;4061;51.360;7.340;2024-02-26T07:32:46;1.33;;;1.23;;
8036;SDS011;4061;51.360;7.340;2024-02-26T07:35:13;1.37;;;1.27;;
8036;SDS011;4061;51.360;7.340;2024-02-26T07:37:41;2.77;;;1.23;;
8036;SDS011;4061;51.360;7.340;2024-02-26T07:40:08;0.97;;;0.97;;
8036;SDS011;4061;51.360;7.340;2024-02-26T07:42:35;1.00;;;1.00;;
8036;SDS011;4061;51.360;7.340;2024-02-26T07:45:03;2.90;;;1.30;;
8036;SDS011;4061;51.360;7.340;2024-02-26T07:47:32;1.17;;;1.00;;
8036;SDS011;4061;51.360;7.340;2024-02-26T07:49:59;0.80;;;0.80;;
8036;SDS011;4061;51.360;7.340;2024-02-26T07:52:26;0.90;;;0.90;;
8036;SDS011;4061;51.360;7.340;2024-02-26T07:54:53;1.73;;;1.63;;
8036;SDS011;4061;51.360;7.340;2024-02-26T07:57:20;1.37;;;1.27;;
8036;SDS011;4061;51.360;7.340;2024-02-26T07:59:48;1.53;;;1.30;;
8036;SDS011;4061;51.360;7.340;2024-02-26T08:02:15;1.30;;;1.10;;
8036;SDS011;4061;51.360;7.340;2024-02-26T08:04:43;0.97;;;0.97;;
8036;SDS011;4061;51.360;7.340;2024-02-26T08:07:10;2.10;;;1.93;;
8036;SDS011;4061;51.360;7.340;2024-02-26T08:09:38;1.37;;;1.27;;
8036;SDS011;4061;51.360;7.340;2024-02-26T08:12:05;2.23;;;2.03;;
8036;SDS011;4061;51.360;7.340;2024-02-26T08:14:32;2.30;;;0.97;;
8036;SDS011;4061;51.360;7.340;2024-02-26T08:16:59;1.43;;;1.33;;
8036;SDS011;4061;51.360;7.340;2024-02-26T08:19:26;1.50;;;1.40;;
8036;SDS011;4061;51.360;7.340;2024-02-26T08:21:54;3.10;;;1.50;;
8036;SDS011;4061;51.360;7.340;2024-02-26T08:24:22;1.20;;;1.13;;
8036;SDS011;4061;51.360;7.340;2024-02-26T08:26:49;1.67;;;1.57;;
8036;SDS011;4061;51.360;7.340;2024-02-26T08:29:16;1.97;;;1.43;;
8036;SDS011;4061;51.360;7.340;2024-02-26T08:31:43;1.80;;;1.70;;
8036;SDS011;4061;51.360;7.340;2024-02-26T08:34:10;3.17;;;1.47;;
8036;SDS011;4061;51.360;7.340;2024-02-26T08:36:37;1.80;;;1.70;;
8036;SDS011;4061;51.360;7.340;2024-02-26T08:39:06;2.20;;;1.83;;
8036;SDS011;4061;51.360;7.340;2024-02-26T08:41:34;2.00;;;1.47;;
8036;SDS011;4061;51.360;7.340;2024-02-26T08:44:01;1.50;;;1.20;;
8036;SDS011;4061;51.360;7.340;2024-02-26T08:46:28;3.50;;;2.03;;
8036;SDS011;4061;51.360;7.340;2024-02-26T08:48:55;1.77;;;1.67;;
8036;SDS011;4061;51.360;7.340;2024-02-26T08:51:22;3.57;;;1.70;;
8036;SDS011;4061;51.360;7.340;2024-02-26T08:53:49;5.27;;;1.80;;
8036;SDS011;4061;51.360;7.340;2024-02-26T08:56:17;1.60;;;1.50;;
8036;SDS011;4061;51.360;7.340;2024-02-26T08:58:44;1.43;;;1.33;;
8036;SDS011;4061;51.360;7.340;2024-02-26T09:01:13;2.13;;;1.70;;
8036;SDS011;4061;51.360;7.340;2024-02-26T09:03:41;1.83;;;1.73;;
8036;SDS011;4061;51.360;7.340;2024-02-26T09:06:08;1.50;;;1.40;;
8036;SDS011;4061;51.360;7.340;2024-02-26T09:08:36;1.50;;;1.40;;
8036;SDS011;4061;51.360;7.340;2024-02-26T09:11:04;1.20;;;1.07;;
8036;SDS011;4061;51.360;7.340;2024-02-26T09:13:33;3.00;;;1.70;;
8036;SDS011;4061;51.360;7.340;2024-02-26T09:16:00;1.10;;;1.10;;
8036;SDS011;4061;51.360;7.340;2024-02-26T09:18:27;2.33;;;1.77;;
8036;SDS011;4061;51.360;7.340;2024-02-26T09:20:54;1.80;;;1.70;;
8036;SDS011;4061;51.360;7.340;2024-02-26T09:23:21;1.90;;;1.80;;
8036;SDS011;4061;51.360;7.340;2024-02-26T09:25:48;1.60;;;1.60;;
8036;SDS011;4061;51.360;7.340;2024-02-26T09:28:15;5.73;;;1.77;;
8036;SDS011;4061;51.360;7.340;2024-02-26T09:30:44;1.87;;;1.53;;
8036;SDS011;4061;51.360;7.340;2024-02-26T09:33:11;4.27;;;2.00;;
8036;SDS011;4061;51.360;7.340;2024-02-26T09:35:38;1.67;;;1.57;;
8036;SDS011;4061;51.360;7.340;2024-02-26T09:38:06;1.90;;;1.80;;
8036;SDS011;4061;51.360;7.340;2024-02-26T09:40:33;1.67;;;1.43;;
8036;SDS011;4061;51.360;7.340;2024-02-26T09:43:00;2.53;;;2.17;;
8036;SDS011;4061;51.360;7.340;2024-02-26T09:45:27;1.93;;;1.20;;
8036;SDS011;4061;51.360;7.340;2024-02-26T09:47:56;2.40;;;1.40;;
8036;SDS011;4061;51.360;7.340;2024-02-26T09:50:23;2.07;;;1.97;;
8036;SDS011;4061;51.360;7.340;2024-02-26T09:52:51;1.20;;;1.20;;
8036;SDS011;4061;51.360;7.340;2024-02-26T09:55:19;1.90;;;1.70;;
8036;SDS011;4061;51.360;7.340;2024-02-26T09:57:46;2.17;;;1.67;;
8036;SDS011;4061;51.360;7.340;2024-02-26T10:00:14;1.93;;;1.53;;
8036;SDS011;4061;51.360;7.340;2024-02-26T10:02:43;1.60;;;1.47;;
8036;SDS011;4061;51.360;7.340;2024-02-26T10:05:13;1.97;;;1.67;;
8036;SDS011;4061;51.360;7.340;2024-02-26T10:07:41;2.87;;;1.70;;
8036;SDS011;4061;51.360;7.340;2024-02-26T10:10:09;2.33;;;1.43;;
8036;SDS011;4061;51.360;7.340;2024-02-26T10:12:36;1.50;;;1.50;;
8036;SDS011;4061;51.360;7.340;2024-02-26T10:15:03;2.27;;;1.30;;
8036;SDS011;4061;51.360;7.340;2024-02-26T10:17:30;1.77;;;1.40;;
8036;SDS011;4061;51.360;7.340;2024-02-26T10:20:10;2.60;;;2.40;;
8036;SDS011;4061;51.360;7.340;2024-02-26T10:22:39;1.80;;;1.70;;
8036;SDS011;4061;51.360;7.340;2024-02-26T10:25:06;4.17;;;2.40;;
8036;SDS011;4061;51.360;7.340;2024-02-26T10:27:33;1.87;;;1.67;;
8036;SDS011;4061;51.360;7.340;2024-02-26T10:30:02;2.57;;;1.63;;
8036;SDS011;4061;51.360;7.340;2024-02-26T10:32:29;2.80;;;2.20;;
8036;SDS011;4061;51.360;7.340;2024-02-26T10:34:57;3.50;;;2.10;;
8036;SDS011;4061;51.360;7.340;2024-02-26T10:37:24;4.60;;;2.20;;
8036;SDS011;4061;51.360;7.340;2024-02-26T10:39:52;2.17;;;1.93;;
8036;SDS011;4061;51.360;7.340;2024-02-26T10:42:19;2.63;;;2.13;;
8036;SDS011;4061;51.360;7.340;2024-02-26T10:44:46;2.63;;;1.70;;
8036;SDS011;4061;51.360;7.340;2024-02-26T10:47:14;2.23;;;1.90;;
8036;SDS011;4061;51.360;7.340;2024-02-26T10:49:45;5.13;;;1.77;;
8036;SDS011;4061;51.360;7.340;2024-02-26T10:52:13;6.13;;;2.23;;
8036;SDS011;4061;51.360;7.340;2024-02-26T10:54:41;3.50;;;2.20;;
8036;SDS011;4061;51.360;7.340;2024-02-26T10:57:12;2.70;;;2.40;;
8036;SDS011;4061;51.360;7.340;2024-02-26T10:59:39;2.77;;;2.53;;
8036;SDS011;4061;51.360;7.340;2024-02-26T11:02:09;2.77;;;2.50;;
8036;SDS011;4061;51.360;7.340;2024-02-26T11:04:36;5.90;;;2.63;;
8036;SDS011;4061;51.360;7.340;2024-02-26T11:07:04;5.20;;;2.23;;
8036;SDS011;4061;51.360;7.340;2024-02-26T11:09:32;3.33;;;2.40;;
8036;SDS011;4061;51.360;7.340;2024-02-26T11:11:59;3.10;;;2.47;;
8036;SDS011;4061;51.360;7.340;2024-02-26T11:14:28;2.37;;;2.23;;
8036;SDS011;4061;51.360;7.340;2024-02-26T11:16:56;4.13;;;2.60;;
8036;SDS011;4061;51.360;7.340;2024-02-26T11:19:24;5.07;;;3.10;;
8036;SDS011;4061;51.360;7.340;2024-02-26T11:21:51;3.33;;;2.90;;
8036;SDS011;4061;51.360;7.340;2024-02-26T11:24:18;3.57;;;2.20;;
8036;SDS011;4061;51.360;7.340;2024-02-26T11:26:46;7.10;;;3.30;;
8036;SDS011;4061;51.360;7.340;2024-02-26T11:29:16;5.53;;;2.77;;
8036;SDS011;4061;51.360;7.340;2024-02-26T11:31:45;6.37;;;3.13;;
8036;SDS011;4061;51.360;7.340;2024-02-26T11:34:13;6.93;;;2.97;;
8036;SDS011;4061;51.360;7.340;2024-02-26T11:36:40;4.20;;;2.83;;
8036;SDS011;4061;51.360;7.340;2024-02-26T11:39:07;8.33;;;2.67;;
8036;SDS011;4061;51.360;7.340;2024-02-26T11:41:35;7.77;;;3.10;;
8036;SDS011;4061;51.360;7.340;2024-02-26T11:44:03;7.33;;;3.20;;
8036;SDS011;4061;51.360;7.340;2024-02-26T11:46:32;6.30;;;3.60;;
8036;SDS011;4061;51.360;7.340;2024-02-26T11:49:01;5.50;;;3.57;;
8036;SDS011;4061;51.360;7.340;2024-02-26T11:51:32;4.30;;;3.40;;
8036;SDS011;4061;51.360;7.340;2024-02-26T11:53:59;7.33;;;4.40;;
8036;SDS011;4061;51.360;7.340;2024-02-26T11:56:26;5.40;;;3.83;;
8036;SDS011;4061;51.360;7.340;2024-02-26T11:58:58;3.63;;;3.27;;
8036;SDS011;4061;51.360;7.340;2024-02-26T12:01:40;6.03;;;3.60;;
8036;SDS011;4061;51.360;7.340;2024-02-26T12:04:11;7.23;;;4.57;;
8036;SDS011;4061;51.360;7.340;2024-02-26T12:06:40;4.50;;;3.40;;
8036;SDS011;4061;51.360;7.340;2024-02-26T12:09:07;6.13;;;3.73;;
8036;SDS011;4061;51.360;7.340;2024-02-26T12:11:36;7.13;;;4.37;;
8036;SDS011;4061;51.360;7.340;2024-02-26T12:14:05;4.77;;;3.47;;
8036;SDS011;4061;51.360;7.340;2024-02-26T12:16:35;5.00;;;3.60;;
8036;SDS011;4061;51.360;7.340;2024-02-26T12:19:03;6.27;;;3.70;;
8036;SDS011;4061;51.360;7.340;2024-02-26T12:21:32;4.80;;;3.77;;
8036;SDS011;4061;51.360;7.340;2024-02-26T12:24:06;5.47;;;3.07;;
8036;SDS011;4061;51.360;7.340;2024-02-26T12:26:33;5.27;;;3.13;;
8036;SDS011;4061;51.360;7.340;2024-02-26T12:29:00;3.57;;;2.70;;
8036;SDS011;4061;51.360;7.340;2024-02-26T12:31:27;3.50;;;2.90;;
8036;SDS011;4061;51.360;7.340;2024-02-26T12:33:56;8.73;;;3.07;;
8036;SDS011;4061;51.360;7.340;2024-02-26T12:36:24;4.20;;;2.60;;
8036;SDS011;4061;51.360;7.340;2024-02-26T12:38:52;2.13;;;1.93;;
8036;SDS011;4061;51.360;7.340;2024-02-26T12:41:20;3.87;;;2.40;;
8036;SDS011;4061;51.360;7.340;2024-02-26T12:43:47;4.47;;;2.27;;
8036;SDS011;4061;51.360;7.340;2024-02-26T12:46:14;4.50;;;2.27;;
8036;SDS011;4061;51.360;7.340;2024-02-26T12:48:42;3.30;;;1.97;;
8036;SDS011;4061;51.360;7.340;2024-02-26T12:51:11;3.10;;;2.10;;
8036;SDS011;4061;51.360;7.340;2024-02-26T12:53:38;2.10;;;1.90;;
8036;SDS011;4061;51.360;7.340;2024-02-26T12:56:07;6.17;;;2.30;;
8036;SDS011;4061;51.360;7.340;2024-02-26T12:58:35;3.07;;;2.27;;
8036;SDS011;4061;51.360;7.340;2024-02-26T13:01:04;7.40;;;1.90;;
8036;SDS011;4061;51.360;7.340;2024-02-26T13:03:31;4.60;;;2.33;;
8036;SDS011;4061;51.360;7.340;2024-02-26T13:05:58;3.13;;;2.53;;
8036;SDS011;4061;51.360;7.340;2024-02-26T13:08:25;2.00;;;1.90;;
8036;SDS011;4061;51.360;7.340;2024-02-26T13:10:52;3.23;;;2.93;;
8036;SDS011;4061;51.360;7.340;2024-02-26T13:13:22;3.97;;;2.80;;
8036;SDS011;4061;51.360;7.340;2024-02-26T13:15:49;3.90;;;2.73;;
8036;SDS011;4061;51.360;7.340;2024-02-26T13:18:16;2.57;;;2.37;;
8036;SDS011;4061;51.360;7.340;2024-02-26T13:20:43;2.67;;;2.47;;
8036;SDS011;4061;51.360;7.340;2024-02-26T13:23:11;2.63;;;2.43;;
8036;SDS011;4061;51.360;7.340;2024-02-26T13:25:39;4.33;;;2.90;;
8036;SDS011;4061;51.360;7.340;2024-02-26T13:28:07;3.47;;;3.00;;
8036;SDS011;4061;51.360;7.340;2024-02-26T13:30:36;4.50;;;2.70;;
8036;SDS011;4061;51.360;7.340;2024-02-26T13:33:07;3.47;;;2.67;;
8036;SDS011;4061;51.360;7.340;2024-02-26T13:35:34;2.97;;;2.67;;
8036;SDS011;4061;51.360;7.340;2024-02-26T13:38:01;4.40;;;2.80;;
8036;SDS011;4061;51.360;7.340;2024-02-26T13:40:29;4.63;;;2.17;;
8036;SDS011;4061;51.360;7.340;2024-02-26T13:42:56;3.53;;;2.73;;
8036;SDS011;4061;51.360;7.340;2024-02-26T13:45:23;5.73;;;2.63;;
8036;SDS011;4061;51.360;7.340;2024-02-26T13:47:51;4.97;;;2.57;;
8036;SDS011;4061;51.360;7.340;2024-02-26T13:50:18;2.33;;;2.10;;
8036;SDS011;4061;51.360;7.340;2024-02-26T13:52:48;4.63;;;3.67;;
8036;SDS011;4061;51.360;7.340;2024-02-26T13:55:18;3.10;;;2.10;;
8036;SDS011;4061;51.360;7.340;2024-02-26T13:57:47;2.83;;;2.47;;
8036;SDS011;4061;51.360;7.340;2024-02-26T14:00:14;4.70;;;2.20;;
8036;SDS011;4061;51.360;7.340;2024-02-26T14:02:41;2.83;;;2.27;;
8036;SDS011;4061;51.360;7.340;2024-02-26T14:05:09;3.10;;;2.77;;
8036;SDS011;4061;51.360;7.340;2024-02-26T14:07:36;2.63;;;2.00;;
8036;SDS011;4061;51.360;7.340;2024-02-26T14:10:04;2.87;;;2.67;;
8036;SDS011;4061;51.360;7.340;2024-02-26T14:12:31;4.90;;;2.47;;
8036;SDS011;4061;51.360;7.340;2024-02-26T14:14:58;3.10;;;2.27;;
8036;SDS011;4061;51.360;7.340;2024-02-26T14:17:29;4.90;;;2.77;;
8036;SDS011;4061;51.360;7.340;2024-02-26T14:19:56;3.00;;;2.00;;
8036;SDS011;4061;51.360;7.340;2024-02-26T14:22:24;2.77;;;2.43;;
8036;SDS011;4061;51.360;7.340;2024-02-26T14:24:52;4.27;;;2.77;;
8036;SDS011;4061;51.360;7.340;2024-02-26T14:27:19;4.17;;;2.37;;
8036;SDS011;4061;51.360;7.340;2024-02-26T14:29:47;3.50;;;2.97;;
8036;SDS011;4061;51.360;7.340;2024-02-26T14:32:18;4.00;;;2.23;;
8036;SDS011;4061;51.360;7.340;2024-02-26T14:34:45;2.60;;;2.13;;
8036;SDS011;4061;51.360;7.340;2024-02-26T14:37:12;2.13;;;1.93;;
8036;SDS011;4061;51.360;7.340;2024-02-26T14:39:41;8.97;;;2.17;;
8036;SDS011;4061;51.360;7.340;2024-02-26T14:42:08;6.50;;;2.53;;
8036;SDS011;4061;51.360;7.340;2024-02-26T14:44:35;5.37;;;2.70;;
8036;SDS011;4061;51.360;7.340;2024-02-26T14:47:02;4.57;;;2.97;;
8036;SDS011;4061;51.360;7.340;2024-02-26T14:49:29;4.23;;;3.00;;
8036;SDS011;4061;51.360;7.340;2024-02-26T14:51:56;3.07;;;2.43;;
8036;SDS011;4061;51.360;7.340;2024-02-26T14:54:23;4.83;;;3.27;;
8036;SDS011;4061;51.360;7.340;2024-02-26T14:56:52;6.73;;;2.93;;
8036;SDS011;4061;51.360;7.340;2024-02-26T14:59:20;4.10;;;2.60;;
8036;SDS011;4061;51.360;7.340;2024-02-26T15:01:47;3.90;;;3.00;;
8036;SDS011;4061;51.360;7.340;2024-02-26T15:04:14;2.30;;;2.03;;
8036;SDS011;4061;51.360;7.340;2024-02-26T15:06:41;2.67;;;2.47;;
8036;SDS011;4061;51.360;7.340;2024-02-26T15:09:08;5.27;;;3.00;;
8036;SDS011;4061;51.360;7.340;2024-02-26T15:11:37;5.40;;;3.63;;
8036;SDS011;4061;51.360;7.340;2024-02-26T15:14:06;4.77;;;2.87;;
8036;SDS011;4061;51.360;7.340;2024-02-26T15:16:33;2.63;;;2.43;;